PA10 weather

Penn Highlands Healthcare - Du Bois Heliport
Du Bois, Pennsylvania, United States

Public forecast

Using degrees Fahrenheit for public forecast. Weather courtesy of forecast.io.

Closest aviation weather report (METAR) to Penn Highlands Healthcare - Du Bois Heliport

Closest report is DuBois Regional Airport, 6.8 nm (12.6 km) NW. Retrieved 2020/07/02 11:53 UTC (55 minutes ago):

KDUJ 021153Z AUTO 34005KT 10SM CLR 20/16 A3002 RMK AO2 SLP152 T02000156 10200 20161 52008

Closest aviation forecast (TAF) to Penn Highlands Healthcare - Du Bois Heliport

Closest forecast is DuBois Regional Airport, 6.8 nm (12.6 km) NW. Retrieved 2020/07/02 12:22 UTC (26 minutes ago):

TAF KDUJ 021120Z 0212/0312 36005KT P6SM FEW050